LFJLLFSN

Guest
Details From LFJL - Metz-Nancy-Lorraine
To LFSN - Nancy Essey
Flight Number -
Tags generated
Created
Modified
Stats Distance 17 nm / 32 km
Max Altitude 0 ft / 0 m
Waypoints 2
Social Downloads 0
Likes 0
Share VATSIM

Download

Looking for another format? Having issues loading an existing format? Contact us
Advertisement - Login to hide

Notes

Basic altitude profile: - Ascent Rate: 2500ft/min - Ascent Speed: 250kts - Cruise Altitude: 35000ft - Cruise Speed: 420kts - Descent Rate: 1500ft/min - Descent Speed: 250kts Options: - Use NATs: yes - Use PACOTS: yes - Use low airways: yes - Use high airways: no

Route

LFJL LFSN

ID Type Via Altitude Latitude Longitude Leg Dist Tot Dist Heading (true) Name
O LFJL APT - 0 ft / 0 m 48.98065˚ 6.24947˚ - 0 nm - Metz-Nancy-Lorraine
O LFSN APT - 0 ft / 0 m 48.69208˚ 6.23045˚ 17 nm 17 nm 182° / 182° Nancy Essey

Altitude Profile

Advertisement - Login to hide

LFJL

Details ICAO LFJL (ETZ)
Name Metz-Nancy-Lorraine
Region France
Timezone Europe/Paris (UTC+1.0)
Stats Elevation 870 ft / 265 m (AMSL)
Location 48.980645° 6.249473°
Runways 1
Magnetic Variation 1.719° E

METAR

LFJL 161500Z AUTO 24006KT 9999 FEW029 OVC036 03/02 Q1015 TEMPO 3000 -SHRASN BKN008

Decode

TAF

TAF LFJL 161100Z 1612/1712 30008KT 9999 BKN020 OVC030 TEMPO 1612/1615 4000 -SHRA BKN012 TEMPO 1615/1621 3000 -SHRASN BKN008 TEMPO 1621/1703 BKN008 TEMPO 1703/1709 BKN003 TEMPO 1709/1712 BKN012

Decode

Departure Runways

ID Width Length Bearing (true) Bearing (mag) Surface Threshold Offset Overrun Length
04 148 ft / 45 m 10,016 ft / 3,053 m 39.13° 37.41° Asphalt 656 ft / 200 m 0 ft / 0 m
22 148 ft / 45 m 10,016 ft / 3,053 m 219.15° 217.43° Asphalt 0 ft / 0 m 0 ft / 0 m

LFSN

Details ICAO LFSN (ENC)
Name Nancy Essey
Region France
Timezone Europe/Paris (UTC+1.0)
Stats Elevation 751 ft / 229 m (AMSL)
Location 48.692079° 6.230454°
Runways 1
Magnetic Variation 1.721° E

METAR

LFSN 161500Z AUTO 28007KT 260V320 9999 FEW014 SCT025 BKN045 04/01 Q1015

Decode

TAF

Not found

Destination Runways

ID Width Length Bearing (true) Bearing (mag) Surface Threshold Offset Overrun Length
03 131 ft / 40 m 4,584 ft / 1,397 m 28.80° 27.08° Asphalt 0 ft / 0 m 0 ft / 0 m
21 131 ft / 40 m 4,584 ft / 1,397 m 208.81° 207.09° Asphalt 0 ft / 0 m 0 ft / 0 m

Approach Navaids

Runway Type Ident Frequency Range Bearing (true) Bearing (mag) Slope Elevation
03 Localiser NY 108.50 MHz 18 nm / 33 km 30.42° 28.70° - 751 ft / 229 m (AMSL)
03 Glidescope NY 108.50 MHz 10 nm / 19 km 28.81° 27.08° 3.00° 751 ft / 229 m (AMSL)
21 Localiser NY 108.50 MHz 18 nm / 33 km 209.11° 207.39° - 751 ft / 229 m (AMSL)

Popular Alternatives